sensor_id;sensor_type;location;lat;lon;timestamp;P1;durP1;ratioP1;P2;durP2;ratioP2
9914;SDS011;4996;48.746;9.174;2024-03-06T00:01:15;4.17;;;1.73;;
9914;SDS011;4996;48.746;9.174;2024-03-06T00:03:41;2.20;;;1.30;;
9914;SDS011;4996;48.746;9.174;2024-03-06T00:06:06;2.30;;;1.97;;
9914;SDS011;4996;48.746;9.174;2024-03-06T00:08:32;2.60;;;1.97;;
9914;SDS011;4996;48.746;9.174;2024-03-06T00:10:57;2.30;;;2.10;;
9914;SDS011;4996;48.746;9.174;2024-03-06T00:13:23;3.57;;;2.63;;
9914;SDS011;4996;48.746;9.174;2024-03-06T00:15:48;4.70;;;1.70;;
9914;SDS011;4996;48.746;9.174;2024-03-06T00:18:14;2.20;;;1.80;;
9914;SDS011;4996;48.746;9.174;2024-03-06T00:20:39;3.80;;;1.90;;
9914;SDS011;4996;48.746;9.174;2024-03-06T00:23:07;5.73;;;1.87;;
9914;SDS011;4996;48.746;9.174;2024-03-06T00:25:32;3.67;;;2.20;;
9914;SDS011;4996;48.746;9.174;2024-03-06T00:27:59;4.97;;;2.50;;
9914;SDS011;4996;48.746;9.174;2024-03-06T00:30:25;4.73;;;1.90;;
9914;SDS011;4996;48.746;9.174;2024-03-06T00:32:51;2.43;;;1.83;;
9914;SDS011;4996;48.746;9.174;2024-03-06T00:35:16;2.80;;;1.73;;
9914;SDS011;4996;48.746;9.174;2024-03-06T00:37:42;2.50;;;1.73;;
9914;SDS011;4996;48.746;9.174;2024-03-06T00:40:07;2.20;;;1.57;;
9914;SDS011;4996;48.746;9.174;2024-03-06T00:42:33;1.90;;;1.50;;
9914;SDS011;4996;48.746;9.174;2024-03-06T00:45:00;5.20;;;1.90;;
9914;SDS011;4996;48.746;9.174;2024-03-06T00:47:27;4.40;;;2.10;;
9914;SDS011;4996;48.746;9.174;2024-03-06T00:49:52;3.43;;;1.87;;
9914;SDS011;4996;48.746;9.174;2024-03-06T00:52:18;2.80;;;2.07;;
9914;SDS011;4996;48.746;9.174;2024-03-06T00:54:43;5.50;;;2.90;;
9914;SDS011;4996;48.746;9.174;2024-03-06T00:57:09;3.77;;;2.30;;
9914;SDS011;4996;48.746;9.174;2024-03-06T00:59:35;4.30;;;3.33;;
9914;SDS011;4996;48.746;9.174;2024-03-06T01:02:00;3.27;;;1.63;;
9914;SDS011;4996;48.746;9.174;2024-03-06T01:04:26;2.30;;;1.83;;
9914;SDS011;4996;48.746;9.174;2024-03-06T01:06:51;2.57;;;1.90;;
9914;SDS011;4996;48.746;9.174;2024-03-06T01:09:17;4.30;;;3.27;;
9914;SDS011;4996;48.746;9.174;2024-03-06T01:11:42;5.13;;;2.50;;
9914;SDS011;4996;48.746;9.174;2024-03-06T01:14:08;3.87;;;1.93;;
9914;SDS011;4996;48.746;9.174;2024-03-06T01:16:33;4.60;;;2.20;;
9914;SDS011;4996;48.746;9.174;2024-03-06T01:18:59;4.13;;;1.97;;
9914;SDS011;4996;48.746;9.174;2024-03-06T01:21:24;2.70;;;2.27;;
9914;SDS011;4996;48.746;9.174;2024-03-06T01:23:50;5.07;;;2.30;;
9914;SDS011;4996;48.746;9.174;2024-03-06T01:26:15;2.87;;;1.80;;
9914;SDS011;4996;48.746;9.174;2024-03-06T01:28:41;3.63;;;2.40;;
9914;SDS011;4996;48.746;9.174;2024-03-06T01:31:07;2.73;;;2.07;;
9914;SDS011;4996;48.746;9.174;2024-03-06T01:33:32;2.70;;;1.83;;
9914;SDS011;4996;48.746;9.174;2024-03-06T01:35:58;6.40;;;2.40;;
9914;SDS011;4996;48.746;9.174;2024-03-06T01:38:23;3.73;;;2.40;;
9914;SDS011;4996;48.746;9.174;2024-03-06T01:40:49;4.10;;;1.93;;
9914;SDS011;4996;48.746;9.174;2024-03-06T01:43:21;2.30;;;1.63;;
9914;SDS011;4996;48.746;9.174;2024-03-06T01:45:48;3.97;;;2.07;;
9914;SDS011;4996;48.746;9.174;2024-03-06T01:48:15;3.83;;;1.90;;
9914;SDS011;4996;48.746;9.174;2024-03-06T01:50:42;4.47;;;2.00;;
9914;SDS011;4996;48.746;9.174;2024-03-06T01:53:09;4.23;;;2.30;;
9914;SDS011;4996;48.746;9.174;2024-03-06T01:55:35;3.67;;;2.27;;
9914;SDS011;4996;48.746;9.174;2024-03-06T01:58:01;4.40;;;2.77;;
9914;SDS011;4996;48.746;9.174;2024-03-06T02:00:27;3.00;;;2.13;;
9914;SDS011;4996;48.746;9.174;2024-03-06T02:02:52;4.17;;;2.13;;
9914;SDS011;4996;48.746;9.174;2024-03-06T02:05:19;3.17;;;1.97;;
9914;SDS011;4996;48.746;9.174;2024-03-06T02:07:45;5.23;;;3.00;;
9914;SDS011;4996;48.746;9.174;2024-03-06T02:10:11;4.50;;;1.83;;
9914;SDS011;4996;48.746;9.174;2024-03-06T02:12:37;2.93;;;2.20;;
9914;SDS011;4996;48.746;9.174;2024-03-06T02:15:03;3.00;;;2.07;;
9914;SDS011;4996;48.746;9.174;2024-03-06T02:17:29;5.23;;;2.20;;
9914;SDS011;4996;48.746;9.174;2024-03-06T02:19:55;2.47;;;2.20;;
9914;SDS011;4996;48.746;9.174;2024-03-06T02:22:23;6.50;;;2.80;;
9914;SDS011;4996;48.746;9.174;2024-03-06T02:24:48;4.63;;;2.00;;
9914;SDS011;4996;48.746;9.174;2024-03-06T02:27:14;3.07;;;2.67;;
9914;SDS011;4996;48.746;9.174;2024-03-06T02:29:41;5.03;;;2.60;;
9914;SDS011;4996;48.746;9.174;2024-03-06T02:32:07;9.40;;;2.30;;
9914;SDS011;4996;48.746;9.174;2024-03-06T02:34:33;3.83;;;2.07;;
9914;SDS011;4996;48.746;9.174;2024-03-06T02:36:59;4.07;;;1.93;;
9914;SDS011;4996;48.746;9.174;2024-03-06T02:39:24;3.10;;;2.23;;
9914;SDS011;4996;48.746;9.174;2024-03-06T02:41:50;2.37;;;2.03;;
9914;SDS011;4996;48.746;9.174;2024-03-06T02:44:15;3.50;;;2.17;;
9914;SDS011;4996;48.746;9.174;2024-03-06T02:46:45;6.10;;;2.77;;
9914;SDS011;4996;48.746;9.174;2024-03-06T02:49:15;3.27;;;1.80;;
9914;SDS011;4996;48.746;9.174;2024-03-06T02:51:40;4.17;;;2.73;;
9914;SDS011;4996;48.746;9.174;2024-03-06T02:54:06;2.80;;;2.20;;
9914;SDS011;4996;48.746;9.174;2024-03-06T02:56:31;4.03;;;2.03;;
9914;SDS011;4996;48.746;9.174;2024-03-06T02:58:57;3.30;;;2.00;;
9914;SDS011;4996;48.746;9.174;2024-03-06T03:01:22;6.10;;;3.13;;
9914;SDS011;4996;48.746;9.174;2024-03-06T03:03:48;5.53;;;2.40;;
9914;SDS011;4996;48.746;9.174;2024-03-06T03:06:14;10.27;;;2.67;;
9914;SDS011;4996;48.746;9.174;2024-03-06T03:08:39;5.27;;;2.57;;
9914;SDS011;4996;48.746;9.174;2024-03-06T03:11:05;5.33;;;3.40;;
9914;SDS011;4996;48.746;9.174;2024-03-06T03:13:31;4.73;;;3.07;;
9914;SDS011;4996;48.746;9.174;2024-03-06T03:15:56;4.20;;;3.13;;
9914;SDS011;4996;48.746;9.174;2024-03-06T03:18:22;3.27;;;2.97;;
9914;SDS011;4996;48.746;9.174;2024-03-06T03:20:48;5.73;;;2.90;;
9914;SDS011;4996;48.746;9.174;2024-03-06T03:23:14;5.53;;;3.90;;
9914;SDS011;4996;48.746;9.174;2024-03-06T03:25:42;7.90;;;3.83;;
9914;SDS011;4996;48.746;9.174;2024-03-06T03:28:08;6.30;;;3.67;;
9914;SDS011;4996;48.746;9.174;2024-03-06T03:30:35;8.40;;;3.27;;
9914;SDS011;4996;48.746;9.174;2024-03-06T03:33:00;6.00;;;3.63;;
9914;SDS011;4996;48.746;9.174;2024-03-06T03:35:26;4.23;;;3.30;;
9914;SDS011;4996;48.746;9.174;2024-03-06T03:37:51;7.33;;;4.30;;
9914;SDS011;4996;48.746;9.174;2024-03-06T03:40:17;4.80;;;3.87;;
9914;SDS011;4996;48.746;9.174;2024-03-06T03:42:43;3.70;;;2.90;;
9914;SDS011;4996;48.746;9.174;2024-03-06T03:45:09;6.20;;;3.67;;
9914;SDS011;4996;48.746;9.174;2024-03-06T03:47:34;7.50;;;3.67;;
9914;SDS011;4996;48.746;9.174;2024-03-06T03:50:00;4.47;;;3.17;;
9914;SDS011;4996;48.746;9.174;2024-03-06T03:52:26;3.23;;;2.50;;
9914;SDS011;4996;48.746;9.174;2024-03-06T03:54:51;3.70;;;3.23;;
9914;SDS011;4996;48.746;9.174;2024-03-06T03:57:17;6.87;;;3.50;;
9914;SDS011;4996;48.746;9.174;2024-03-06T03:59:42;5.17;;;3.20;;
9914;SDS011;4996;48.746;9.174;2024-03-06T04:02:08;4.20;;;2.60;;
9914;SDS011;4996;48.746;9.174;2024-03-06T04:04:33;4.40;;;2.97;;
9914;SDS011;4996;48.746;9.174;2024-03-06T04:07:00;4.80;;;3.20;;
9914;SDS011;4996;48.746;9.174;2024-03-06T04:09:27;7.83;;;3.30;;
9914;SDS011;4996;48.746;9.174;2024-03-06T04:11:54;6.87;;;2.97;;
9914;SDS011;4996;48.746;9.174;2024-03-06T04:14:19;3.60;;;2.70;;
9914;SDS011;4996;48.746;9.174;2024-03-06T04:16:48;12.83;;;2.77;;
9914;SDS011;4996;48.746;9.174;2024-03-06T04:19:13;5.00;;;3.13;;
9914;SDS011;4996;48.746;9.174;2024-03-06T04:21:42;6.83;;;3.13;;
9914;SDS011;4996;48.746;9.174;2024-03-06T04:24:08;4.13;;;2.33;;
9914;SDS011;4996;48.746;9.174;2024-03-06T04:26:33;6.70;;;2.80;;
9914;SDS011;4996;48.746;9.174;2024-03-06T04:28:59;7.03;;;3.63;;
9914;SDS011;4996;48.746;9.174;2024-03-06T04:31:25;6.03;;;3.80;;
9914;SDS011;4996;48.746;9.174;2024-03-06T04:33:50;5.93;;;3.47;;
9914;SDS011;4996;48.746;9.174;2024-03-06T04:36:16;3.83;;;2.90;;
9914;SDS011;4996;48.746;9.174;2024-03-06T04:38:41;3.00;;;2.60;;
9914;SDS011;4996;48.746;9.174;2024-03-06T04:41:07;10.40;;;4.00;;
9914;SDS011;4996;48.746;9.174;2024-03-06T04:43:33;5.73;;;3.63;;
9914;SDS011;4996;48.746;9.174;2024-03-06T04:45:59;7.13;;;3.73;;
9914;SDS011;4996;48.746;9.174;2024-03-06T04:48:25;6.00;;;3.43;;
9914;SDS011;4996;48.746;9.174;2024-03-06T04:50:51;7.93;;;3.33;;
9914;SDS011;4996;48.746;9.174;2024-03-06T04:53:16;4.67;;;3.40;;
9914;SDS011;4996;48.746;9.174;2024-03-06T04:55:42;4.33;;;2.63;;
9914;SDS011;4996;48.746;9.174;2024-03-06T04:58:07;9.27;;;4.10;;
9914;SDS011;4996;48.746;9.174;2024-03-06T05:00:33;6.37;;;2.90;;
9914;SDS011;4996;48.746;9.174;2024-03-06T05:02:59;6.03;;;3.60;;
9914;SDS011;4996;48.746;9.174;2024-03-06T05:05:24;6.60;;;4.20;;
9914;SDS011;4996;48.746;9.174;2024-03-06T05:07:50;13.57;;;4.80;;
9914;SDS011;4996;48.746;9.174;2024-03-06T05:10:16;5.40;;;3.10;;
9914;SDS011;4996;48.746;9.174;2024-03-06T05:12:42;5.73;;;3.60;;
9914;SDS011;4996;48.746;9.174;2024-03-06T05:15:08;7.80;;;4.17;;
9914;SDS011;4996;48.746;9.174;2024-03-06T05:17:35;6.33;;;3.93;;
9914;SDS011;4996;48.746;9.174;2024-03-06T05:20:01;11.97;;;3.40;;
9914;SDS011;4996;48.746;9.174;2024-03-06T05:22:29;4.20;;;3.80;;
9914;SDS011;4996;48.746;9.174;2024-03-06T05:24:54;8.60;;;3.80;;
9914;SDS011;4996;48.746;9.174;2024-03-06T05:27:20;4.30;;;2.70;;
9914;SDS011;4996;48.746;9.174;2024-03-06T05:29:46;7.00;;;3.70;;
9914;SDS011;4996;48.746;9.174;2024-03-06T05:32:11;5.67;;;3.47;;
9914;SDS011;4996;48.746;9.174;2024-03-06T05:34:37;7.50;;;3.30;;
9914;SDS011;4996;48.746;9.174;2024-03-06T05:37:03;4.83;;;3.67;;
9914;SDS011;4996;48.746;9.174;2024-03-06T05:39:29;4.40;;;2.87;;
9914;SDS011;4996;48.746;9.174;2024-03-06T05:41:59;6.87;;;4.10;;
9914;SDS011;4996;48.746;9.174;2024-03-06T05:44:25;4.37;;;3.10;;
9914;SDS011;4996;48.746;9.174;2024-03-06T05:46:51;4.27;;;3.20;;
9914;SDS011;4996;48.746;9.174;2024-03-06T05:49:17;5.83;;;2.90;;
9914;SDS011;4996;48.746;9.174;2024-03-06T05:51:42;6.87;;;3.57;;
9914;SDS011;4996;48.746;9.174;2024-03-06T05:54:08;5.33;;;3.77;;
9914;SDS011;4996;48.746;9.174;2024-03-06T05:56:34;4.00;;;3.23;;
9914;SDS011;4996;48.746;9.174;2024-03-06T05:59:00;5.23;;;4.03;;
9914;SDS011;4996;48.746;9.174;2024-03-06T06:01:29;5.83;;;4.00;;
9914;SDS011;4996;48.746;9.174;2024-03-06T06:03:55;6.10;;;3.57;;
9914;SDS011;4996;48.746;9.174;2024-03-06T06:06:21;8.00;;;3.90;;
9914;SDS011;4996;48.746;9.174;2024-03-06T06:08:47;6.70;;;3.83;;
9914;SDS011;4996;48.746;9.174;2024-03-06T06:11:13;5.60;;;3.63;;
9914;SDS011;4996;48.746;9.174;2024-03-06T06:13:38;8.80;;;4.30;;
9914;SDS011;4996;48.746;9.174;2024-03-06T06:16:05;6.97;;;4.57;;
9914;SDS011;4996;48.746;9.174;2024-03-06T06:18:31;8.63;;;5.10;;
9914;SDS011;4996;48.746;9.174;2024-03-06T06:20:57;5.73;;;4.20;;
9914;SDS011;4996;48.746;9.174;2024-03-06T06:23:25;8.43;;;3.90;;
9914;SDS011;4996;48.746;9.174;2024-03-06T06:25:51;7.03;;;4.10;;
9914;SDS011;4996;48.746;9.174;2024-03-06T06:28:17;8.97;;;5.43;;
9914;SDS011;4996;48.746;9.174;2024-03-06T06:30:42;7.00;;;4.97;;
9914;SDS011;4996;48.746;9.174;2024-03-06T06:33:08;7.07;;;4.10;;
9914;SDS011;4996;48.746;9.174;2024-03-06T06:35:34;9.10;;;4.63;;
9914;SDS011;4996;48.746;9.174;2024-03-06T06:38:00;4.77;;;4.03;;
9914;SDS011;4996;48.746;9.174;2024-03-06T06:40:26;8.80;;;4.53;;
9914;SDS011;4996;48.746;9.174;2024-03-06T06:42:55;9.27;;;4.70;;
9914;SDS011;4996;48.746;9.174;2024-03-06T06:45:21;5.70;;;3.60;;
9914;SDS011;4996;48.746;9.174;2024-03-06T06:47:47;6.67;;;3.70;;
9914;SDS011;4996;48.746;9.174;2024-03-06T06:50:14;5.70;;;4.03;;
9914;SDS011;4996;48.746;9.174;2024-03-06T06:52:40;5.53;;;4.00;;
9914;SDS011;4996;48.746;9.174;2024-03-06T06:55:06;14.73;;;4.50;;
9914;SDS011;4996;48.746;9.174;2024-03-06T06:57:34;6.10;;;4.30;;
9914;SDS011;4996;48.746;9.174;2024-03-06T07:00:00;7.03;;;4.80;;
9914;SDS011;4996;48.746;9.174;2024-03-06T07:02:27;6.00;;;4.20;;
9914;SDS011;4996;48.746;9.174;2024-03-06T07:04:53;6.60;;;4.13;;
9914;SDS011;4996;48.746;9.174;2024-03-06T07:07:18;4.97;;;4.27;;
9914;SDS011;4996;48.746;9.174;2024-03-06T07:09:44;5.33;;;3.80;;
9914;SDS011;4996;48.746;9.174;2024-03-06T07:12:10;6.17;;;4.63;;
9914;SDS011;4996;48.746;9.174;2024-03-06T07:14:35;8.40;;;4.73;;
9914;SDS011;4996;48.746;9.174;2024-03-06T07:17:01;8.43;;;4.53;;
9914;SDS011;4996;48.746;9.174;2024-03-06T07:19:27;7.23;;;4.20;;
9914;SDS011;4996;48.746;9.174;2024-03-06T07:21:52;8.73;;;4.80;;
9914;SDS011;4996;48.746;9.174;2024-03-06T07:24:18;7.50;;;4.77;;
9914;SDS011;4996;48.746;9.174;2024-03-06T07:26:44;7.03;;;4.80;;
9914;SDS011;4996;48.746;9.174;2024-03-06T07:29:09;9.70;;;5.03;;
9914;SDS011;4996;48.746;9.174;2024-03-06T07:31:40;10.80;;;6.00;;
9914;SDS011;4996;48.746;9.174;2024-03-06T07:34:07;8.83;;;5.10;;
9914;SDS011;4996;48.746;9.174;2024-03-06T07:36:33;8.03;;;4.90;;
9914;SDS011;4996;48.746;9.174;2024-03-06T07:39:00;10.30;;;4.67;;
9914;SDS011;4996;48.746;9.174;2024-03-06T07:41:26;10.70;;;5.23;;
9914;SDS011;4996;48.746;9.174;2024-03-06T07:43:51;9.43;;;5.60;;
9914;SDS011;4996;48.746;9.174;2024-03-06T07:46:17;6.77;;;5.87;;
9914;SDS011;4996;48.746;9.174;2024-03-06T07:48:43;6.40;;;4.90;;
9914;SDS011;4996;48.746;9.174;2024-03-06T07:51:09;10.00;;;5.47;;
9914;SDS011;4996;48.746;9.174;2024-03-06T07:53:35;9.17;;;6.20;;
9914;SDS011;4996;48.746;9.174;2024-03-06T07:56:01;9.70;;;5.93;;
9914;SDS011;4996;48.746;9.174;2024-03-06T07:58:28;10.70;;;5.07;;
9914;SDS011;4996;48.746;9.174;2024-03-06T08:00:53;7.80;;;5.80;;
9914;SDS011;4996;48.746;9.174;2024-03-06T08:03:20;7.10;;;5.17;;
9914;SDS011;4996;48.746;9.174;2024-03-06T08:05:47;9.47;;;6.07;;
9914;SDS011;4996;48.746;9.174;2024-03-06T08:08:16;9.70;;;6.30;;
9914;SDS011;4996;48.746;9.174;2024-03-06T08:10:41;9.27;;;5.03;;
9914;SDS011;4996;48.746;9.174;2024-03-06T08:13:07;15.37;;;5.40;;
9914;SDS011;4996;48.746;9.174;2024-03-06T08:15:32;7.90;;;6.10;;
9914;SDS011;4996;48.746;9.174;2024-03-06T08:17:58;10.80;;;6.93;;
9914;SDS011;4996;48.746;9.174;2024-03-06T08:20:23;8.43;;;6.37;;
9914;SDS011;4996;48.746;9.174;2024-03-06T08:22:49;9.27;;;5.33;;
9914;SDS011;4996;48.746;9.174;2024-03-06T08:25:15;7.20;;;4.67;;
9914;SDS011;4996;48.746;9.174;2024-03-06T08:27:40;13.23;;;5.70;;
9914;SDS011;4996;48.746;9.174;2024-03-06T08:30:07;8.30;;;5.17;;
9914;SDS011;4996;48.746;9.174;2024-03-06T08:32:34;4.83;;;4.10;;
9914;SDS011;4996;48.746;9.174;2024-03-06T08:35:04;7.23;;;5.50;;
9914;SDS011;4996;48.746;9.174;2024-03-06T08:37:36;8.47;;;4.53;;
9914;SDS011;4996;48.746;9.174;2024-03-06T08:40:03;5.57;;;4.50;;
9914;SDS011;4996;48.746;9.174;2024-03-06T08:42:29;10.03;;;5.27;;
9914;SDS011;4996;48.746;9.174;2024-03-06T08:44:54;8.00;;;4.87;;
9914;SDS011;4996;48.746;9.174;2024-03-06T08:47:20;8.50;;;4.80;;
9914;SDS011;4996;48.746;9.174;2024-03-06T08:49:45;7.07;;;5.40;;
9914;SDS011;4996;48.746;9.174;2024-03-06T08:52:13;6.03;;;4.63;;
9914;SDS011;4996;48.746;9.174;2024-03-06T08:54:39;7.00;;;5.30;;
9914;SDS011;4996;48.746;9.174;2024-03-06T08:57:06;8.30;;;5.40;;
9914;SDS011;4996;48.746;9.174;2024-03-06T08:59:33;5.83;;;5.23;;
9914;SDS011;4996;48.746;9.174;2024-03-06T09:02:06;16.70;;;5.90;;
9914;SDS011;4996;48.746;9.174;2024-03-06T09:04:43;8.30;;;5.70;;
9914;SDS011;4996;48.746;9.174;2024-03-06T09:07:09;7.20;;;5.60;;
9914;SDS011;4996;48.746;9.174;2024-03-06T09:09:35;8.43;;;5.80;;
9914;SDS011;4996;48.746;9.174;2024-03-06T09:12:02;12.20;;;6.67;;
9914;SDS011;4996;48.746;9.174;2024-03-06T09:14:30;10.40;;;5.23;;
9914;SDS011;4996;48.746;9.174;2024-03-06T09:16:59;9.87;;;5.57;;
9914;SDS011;4996;48.746;9.174;2024-03-06T09:19:25;8.47;;;6.60;;
9914;SDS011;4996;48.746;9.174;2024-03-06T09:21:50;7.97;;;5.37;;
9914;SDS011;4996;48.746;9.174;2024-03-06T09:24:16;10.53;;;6.67;;
9914;SDS011;4996;48.746;9.174;2024-03-06T09:26:41;14.53;;;7.50;;
9914;SDS011;4996;48.746;9.174;2024-03-06T09:29:08;10.47;;;6.53;;
9914;SDS011;4996;48.746;9.174;2024-03-06T09:31:33;8.90;;;5.97;;
9914;SDS011;4996;48.746;9.174;2024-03-06T09:33:59;8.03;;;6.00;;
9914;SDS011;4996;48.746;9.174;2024-03-06T09:36:25;6.57;;;4.70;;
9914;SDS011;4996;48.746;9.174;2024-03-06T09:38:50;8.60;;;4.63;;
9914;SDS011;4996;48.746;9.174;2024-03-06T09:41:17;9.80;;;5.80;;
9914;SDS011;4996;48.746;9.174;2024-03-06T09:43:43;8.50;;;6.77;;
9914;SDS011;4996;48.746;9.174;2024-03-06T09:46:12;13.20;;;6.30;;
9914;SDS011;4996;48.746;9.174;2024-03-06T09:48:42;8.67;;;6.17;;
9914;SDS011;4996;48.746;9.174;2024-03-06T09:51:12;6.20;;;5.20;;
9914;SDS011;4996;48.746;9.174;2024-03-06T09:53:39;10.53;;;6.53;;
9914;SDS011;4996;48.746;9.174;2024-03-06T09:56:05;11.33;;;6.13;;
9914;SDS011;4996;48.746;9.174;2024-03-06T09:58:31;9.30;;;6.67;;
9914;SDS011;4996;48.746;9.174;2024-03-06T10:01:00;15.47;;;7.20;;
9914;SDS011;4996;48.746;9.174;2024-03-06T10:03:28;12.20;;;7.80;;
9914;SDS011;4996;48.746;9.174;2024-03-06T10:05:54;9.83;;;7.10;;
9914;SDS011;4996;48.746;9.174;2024-03-06T10:08:21;13.33;;;8.20;;
9914;SDS011;4996;48.746;9.174;2024-03-06T10:10:49;9.40;;;7.87;;
9914;SDS011;4996;48.746;9.174;2024-03-06T10:13:16;12.33;;;7.70;;
9914;SDS011;4996;48.746;9.174;2024-03-06T10:15:42;10.00;;;7.87;;
9914;SDS011;4996;48.746;9.174;2024-03-06T10:18:20;11.07;;;8.13;;
9914;SDS011;4996;48.746;9.174;2024-03-06T10:20:45;9.03;;;8.00;;
9914;SDS011;4996;48.746;9.174;2024-03-06T10:23:11;13.13;;;7.33;;
9914;SDS011;4996;48.746;9.174;2024-03-06T10:25:37;13.40;;;9.47;;
9914;SDS011;4996;48.746;9.174;2024-03-06T10:30:32;12.43;;;8.87;;
9914;SDS011;4996;48.746;9.174;2024-03-06T10:33:02;12.97;;;9.13;;
9914;SDS011;4996;48.746;9.174;2024-03-06T10:35:31;19.23;;;10.60;;
9914;SDS011;4996;48.746;9.174;2024-03-06T10:37:57;12.30;;;9.13;;
9914;SDS011;4996;48.746;9.174;2024-03-06T10:40:26;12.83;;;8.90;;
9914;SDS011;4996;48.746;9.174;2024-03-06T10:42:54;14.10;;;9.50;;
9914;SDS011;4996;48.746;9.174;2024-03-06T10:45:20;16.77;;;10.27;;
9914;SDS011;4996;48.746;9.174;2024-03-06T10:47:53;17.33;;;12.57;;
9914;SDS011;4996;48.746;9.174;2024-03-06T10:50:19;15.57;;;11.50;;
9914;SDS011;4996;48.746;9.174;2024-03-06T10:52:46;15.33;;;10.27;;
9914;SDS011;4996;48.746;9.174;2024-03-06T10:55:12;12.60;;;9.30;;
9914;SDS011;4996;48.746;9.174;2024-03-06T10:57:38;8.67;;;7.00;;
9914;SDS011;4996;48.746;9.174;2024-03-06T11:00:05;18.60;;;11.20;;
9914;SDS011;4996;48.746;9.174;2024-03-06T11:02:31;21.23;;;11.93;;
9914;SDS011;4996;48.746;9.174;2024-03-06T11:04:57;14.23;;;9.07;;
9914;SDS011;4996;48.746;9.174;2024-03-06T11:07:24;19.43;;;12.90;;
9914;SDS011;4996;48.746;9.174;2024-03-06T11:09:52;17.90;;;11.57;;
9914;SDS011;4996;48.746;9.174;2024-03-06T11:12:37;15.93;;;12.77;;
9914;SDS011;4996;48.746;9.174;2024-03-06T11:15:13;21.50;;;14.20;;
9914;SDS011;4996;48.746;9.174;2024-03-06T11:17:41;15.47;;;11.87;;
9914;SDS011;4996;48.746;9.174;2024-03-06T11:20:13;17.23;;;13.00;;
9914;SDS011;4996;48.746;9.174;2024-03-06T11:28:20;21.17;;;13.00;;
9914;SDS011;4996;48.746;9.174;2024-03-06T11:30:48;20.80;;;12.50;;
9914;SDS011;4996;48.746;9.174;2024-03-06T11:36:18;19.00;;;13.20;;
9914;SDS011;4996;48.746;9.174;2024-03-06T11:38:57;19.50;;;12.70;;
9914;SDS011;4996;48.746;9.174;2024-03-06T11:41:25;15.93;;;11.47;;
9914;SDS011;4996;48.746;9.174;2024-03-06T11:43:52;24.40;;;14.03;;
9914;SDS011;4996;48.746;9.174;2024-03-06T11:46:20;21.07;;;12.53;;
9914;SDS011;4996;48.746;9.174;2024-03-06T11:49:07;23.97;;;15.63;;
9914;SDS011;4996;48.746;9.174;2024-03-06T11:51:47;30.63;;;19.93;;
9914;SDS011;4996;48.746;9.174;2024-03-06T11:54:13;25.40;;;14.90;;
9914;SDS011;4996;48.746;9.174;2024-03-06T11:56:39;26.20;;;16.93;;
9914;SDS011;4996;48.746;9.174;2024-03-06T11:59:05;24.30;;;16.00;;
9914;SDS011;4996;48.746;9.174;2024-03-06T12:01:34;26.87;;;16.67;;
9914;SDS011;4996;48.746;9.174;2024-03-06T12:04:01;23.80;;;15.70;;
9914;SDS011;4996;48.746;9.174;2024-03-06T12:06:27;28.77;;;17.10;;
9914;SDS011;4996;48.746;9.174;2024-03-06T12:08:53;26.37;;;15.93;;
9914;SDS011;4996;48.746;9.174;2024-03-06T12:11:19;23.43;;;15.63;;
9914;SDS011;4996;48.746;9.174;2024-03-06T12:13:46;25.93;;;16.60;;
9914;SDS011;4996;48.746;9.174;2024-03-06T12:16:13;27.20;;;16.00;;
9914;SDS011;4996;48.746;9.174;2024-03-06T12:18:39;28.27;;;17.63;;
9914;SDS011;4996;48.746;9.174;2024-03-06T12:21:04;22.57;;;15.20;;
9914;SDS011;4996;48.746;9.174;2024-03-06T12:23:30;25.50;;;16.67;;
9914;SDS011;4996;48.746;9.174;2024-03-06T12:26:05;25.53;;;16.90;;
9914;SDS011;4996;48.746;9.174;2024-03-06T12:28:33;23.57;;;15.87;;
9914;SDS011;4996;48.746;9.174;2024-03-06T12:31:01;25.23;;;15.63;;
9914;SDS011;4996;48.746;9.174;2024-03-06T12:33:31;23.53;;;15.17;;
9914;SDS011;4996;48.746;9.174;2024-03-06T12:36:00;23.90;;;17.33;;
9914;SDS011;4996;48.746;9.174;2024-03-06T12:38:25;22.17;;;11.80;;
9914;SDS011;4996;48.746;9.174;2024-03-06T12:40:54;29.47;;;16.83;;
9914;SDS011;4996;48.746;9.174;2024-03-06T12:43:19;26.20;;;16.53;;
9914;SDS011;4996;48.746;9.174;2024-03-06T12:45:45;20.80;;;15.07;;
9914;SDS011;4996;48.746;9.174;2024-03-06T12:48:10;27.47;;;17.07;;
9914;SDS011;4996;48.746;9.174;2024-03-06T12:50:37;24.90;;;15.70;;
9914;SDS011;4996;48.746;9.174;2024-03-06T12:53:03;31.83;;;17.10;;
9914;SDS011;4996;48.746;9.174;2024-03-06T12:55:29;34.03;;;16.00;;
9914;SDS011;4996;48.746;9.174;2024-03-06T12:57:58;26.67;;;15.40;;
9914;SDS011;4996;48.746;9.174;2024-03-06T13:00:24;27.00;;;18.40;;
9914;SDS011;4996;48.746;9.174;2024-03-06T13:02:50;28.63;;;17.00;;
9914;SDS011;4996;48.746;9.174;2024-03-06T13:05:16;25.40;;;17.50;;
9914;SDS011;4996;48.746;9.174;2024-03-06T13:07:42;28.80;;;17.63;;
9914;SDS011;4996;48.746;9.174;2024-03-06T13:10:08;24.30;;;16.30;;
9914;SDS011;4996;48.746;9.174;2024-03-06T13:12:35;27.60;;;15.80;;
9914;SDS011;4996;48.746;9.174;2024-03-06T13:15:01;30.60;;;18.57;;
9914;SDS011;4996;48.746;9.174;2024-03-06T13:17:28;24.60;;;16.00;;
9914;SDS011;4996;48.746;9.174;2024-03-06T13:19:54;23.93;;;16.60;;
9914;SDS011;4996;48.746;9.174;2024-03-06T13:22:21;26.40;;;16.97;;
9914;SDS011;4996;48.746;9.174;2024-03-06T13:24:47;25.33;;;15.50;;
9914;SDS011;4996;48.746;9.174;2024-03-06T13:27:13;22.87;;;15.40;;
9914;SDS011;4996;48.746;9.174;2024-03-06T13:29:39;31.97;;;17.10;;
9914;SDS011;4996;48.746;9.174;2024-03-06T13:32:06;24.27;;;15.67;;
9914;SDS011;4996;48.746;9.174;2024-03-06T13:34:32;25.80;;;16.70;;
9914;SDS011;4996;48.746;9.174;2024-03-06T13:36:58;24.70;;;14.10;;
9914;SDS011;4996;48.746;9.174;2024-03-06T13:39:24;26.40;;;15.70;;
9914;SDS011;4996;48.746;9.174;2024-03-06T13:41:50;26.83;;;16.90;;
9914;SDS011;4996;48.746;9.174;2024-03-06T13:44:17;27.53;;;16.00;;
9914;SDS011;4996;48.746;9.174;2024-03-06T13:46:42;23.70;;;16.77;;
9914;SDS011;4996;48.746;9.174;2024-03-06T13:49:11;21.53;;;14.40;;
9914;SDS011;4996;48.746;9.174;2024-03-06T13:52:08;25.23;;;14.30;;
9914;SDS011;4996;48.746;9.174;2024-03-06T13:54:40;24.30;;;15.93;;
9914;SDS011;4996;48.746;9.174;2024-03-06T13:57:07;22.30;;;13.93;;
9914;SDS011;4996;48.746;9.174;2024-03-06T13:59:34;24.77;;;16.20;;
9914;SDS011;4996;48.746;9.174;2024-03-06T14:02:00;31.20;;;15.87;;
9914;SDS011;4996;48.746;9.174;2024-03-06T14:04:26;23.83;;;14.87;;
9914;SDS011;4996;48.746;9.174;2024-03-06T14:06:52;25.90;;;15.70;;
9914;SDS011;4996;48.746;9.174;2024-03-06T14:09:18;24.90;;;15.60;;
9914;SDS011;4996;48.746;9.174;2024-03-06T14:11:44;24.73;;;14.80;;
9914;SDS011;4996;48.746;9.174;2024-03-06T14:14:09;26.20;;;16.60;;
9914;SDS011;4996;48.746;9.174;2024-03-06T14:16:36;25.07;;;15.97;;
9914;SDS011;4996;48.746;9.174;2024-03-06T14:19:02;23.40;;;15.43;;
9914;SDS011;4996;48.746;9.174;2024-03-06T14:21:29;23.40;;;15.67;;
9914;SDS011;4996;48.746;9.174;2024-03-06T14:23:55;24.07;;;15.60;;
9914;SDS011;4996;48.746;9.174;2024-03-06T14:26:20;26.90;;;16.33;;
9914;SDS011;4996;48.746;9.174;2024-03-06T14:28:47;24.90;;;16.67;;
9914;SDS011;4996;48.746;9.174;2024-03-06T14:31:13;24.23;;;16.77;;
9914;SDS011;4996;48.746;9.174;2024-03-06T14:33:39;22.87;;;15.17;;
9914;SDS011;4996;48.746;9.174;2024-03-06T14:36:05;21.80;;;14.27;;
9914;SDS011;4996;48.746;9.174;2024-03-06T14:38:31;23.73;;;16.73;;
9914;SDS011;4996;48.746;9.174;2024-03-06T14:40:57;28.67;;;18.37;;
9914;SDS011;4996;48.746;9.174;2024-03-06T14:43:24;25.97;;;16.77;;
9914;SDS011;4996;48.746;9.174;2024-03-06T14:45:49;23.73;;;15.93;;
9914;SDS011;4996;48.746;9.174;2024-03-06T14:48:16;25.30;;;16.83;;
9914;SDS011;4996;48.746;9.174;2024-03-06T14:50:41;25.33;;;16.00;;
9914;SDS011;4996;48.746;9.174;2024-03-06T14:53:07;27.13;;;16.40;;
9914;SDS011;4996;48.746;9.174;2024-03-06T14:55:33;29.10;;;17.47;;
9914;SDS011;4996;48.746;9.174;2024-03-06T14:57:59;27.23;;;16.43;;
9914;SDS011;4996;48.746;9.174;2024-03-06T15:00:24;22.07;;;13.67;;
9914;SDS011;4996;48.746;9.174;2024-03-06T15:02:50;28.23;;;16.37;;
9914;SDS011;4996;48.746;9.174;2024-03-06T15:05:15;27.67;;;15.60;;
9914;SDS011;4996;48.746;9.174;2024-03-06T15:07:41;25.60;;;15.60;;
9914;SDS011;4996;48.746;9.174;2024-03-06T15:10:06;22.60;;;15.40;;
9914;SDS011;4996;48.746;9.174;2024-03-06T15:12:33;25.80;;;15.47;;